Meteo Giornale » Osservazioni meteo Stati Uniti (USA) » Topeka Forbes Fld
ore: 16:53 - Osservazioni Meteo Topeka Forbes Fld
Lat. 38° 56' N Lon. 95° 39' W Alt. 329 metri s.l.m.
38 °C
Sereno
Temp. 24 Ore
22 °C
38 °C
Sud/Sud-Ovest
25.9 Km/h
Dew point 14 °C
Umidità 24 %
Visibilità 10 Km
Il sole sorge alle ore 06:51
Il sole tramonta alle ore 19:53
| Data e Ora | Cielo e Fenomeni | T °C | DP °C | Um. % | Pres. hPa | Vis. km | Vento km/h | |
|---|---|---|---|---|---|---|---|---|
| Oggi h: 16:53 | Sereno | 38 | 14 | 24 | 1013 | 10 | S/SO 25.9 | |
| Oggi h: 15:53 | Sereno | 38 | 14 | 24 | 1013 | 10 | S/SO 20.3 | |
| Oggi h: 14:53 | Sereno | 38 | 16 | 27 | 1014 | 10 | S/SO 18.5 | |
| Oggi h: 13:53 | Sereno | 37 | 18 | 32 | 1015 | 10 | S/SO 24 | |
| Oggi h: 12:53 | Sereno | 36 | 18 | 34 | 1015 | 10 | S/SO 20.3 | |
| Oggi h: 11:53 | Sereno | 34 | 17 | 36 | 1016 | 10 | S/SO 22.2 | |
| Oggi h: 10:53 | Poco Nuvoloso | 33 | 17 | 38 | 1016 | 10 | S/SO 20.3 | |
| Oggi h: 09:53 | Nuvoloso | 31 | 17 | 43 | 1016 | 10 | S 20.3 | |
| Oggi h: 08:53 | Poco Nuvoloso | 27 | 17 | 54 | 1016 | 10 | S 18.5 | |
| Oggi h: 07:53 | Sereno | 24 | 17 | 64 | 1016 | 14 | S 13 | |
| Oggi h: 06:53 | Sereno | 22 | 17 | 73 | 1016 | 10 | S 9.3 | |
| Oggi h: 05:53 | Sereno | 22 | 17 | 73 | 1015 | 10 | S 9.3 | |
| Oggi h: 04:53 | Sereno | 22 | 17 | 73 | 1015 | 10 | S 13 | |
| Oggi h: 03:53 | Sereno | 24 | 17 | 64 | 1015 | 10 | S 11.1 | |
| Oggi h: 02:53 | Sereno | 24 | 17 | 64 | 1014 | 10 | S 13 | |
| Oggi h: 01:53 | Sereno | 24 | 17 | 64 | 1015 | 10 | S 7.4 | |
| Oggi h: 00:53 | Sereno | 25 | 17 | 61 | 1015 | 10 | S 11.1 | |
| Ieri h: 23:53 | Sereno | 26 | 17 | 57 | 1015 | 10 | S 7.4 | |
| Ieri h: 22:53 | Sereno | 27 | 17 | 54 | 1014 | 10 | S/SE 13 | |
| Ieri h: 21:53 | Sereno | 26 | 18 | 61 | 1014 | 10 | S/SE 9.3 | |
| Ieri h: 20:53 | Sereno | 28 | 19 | 58 | 1013 | 10 | SE 11.1 | |
| Ieri h: 19:53 | Sereno | 31 | 18 | 45 | 1013 | 10 | SE 7.4 | |
| Ieri h: 18:53 | Sereno | 36 | 18 | 34 | 1013 | 10 | S 11.1 | |
| Ieri h: 17:53 | Sereno | 38 | 17 | 29 | 1012 | 10 | S 22.2 | |



